createdAt,value
2018-08-11T00:02:27.370Z,0.70
2018-08-11T00:04:55.407Z,0.80
2018-08-11T00:07:23.436Z,1.13
2018-08-11T00:09:51.471Z,0.83
2018-08-11T00:12:19.536Z,0.70
2018-08-11T00:14:47.566Z,0.83
2018-08-11T00:17:15.623Z,0.80
2018-08-11T00:19:43.754Z,0.63
2018-08-11T00:22:12.085Z,0.70
2018-08-11T00:24:40.184Z,0.60
2018-08-11T00:27:08.210Z,0.83
2018-08-11T00:29:36.322Z,0.80
2018-08-11T00:32:04.368Z,0.70
2018-08-11T00:34:32.415Z,0.80
2018-08-11T00:37:00.495Z,0.60
2018-08-11T00:39:28.547Z,0.90
2018-08-11T00:41:56.598Z,1.00
2018-08-11T00:44:24.736Z,0.90
2018-08-11T00:46:52.780Z,0.70
2018-08-11T00:49:20.911Z,1.07
2018-08-11T00:51:48.896Z,1.00
2018-08-11T00:54:16.954Z,0.80
2018-08-11T00:56:45.031Z,0.70
2018-08-11T00:59:14.131Z,1.00
2018-08-11T01:01:42.181Z,0.90
2018-08-11T01:04:10.216Z,0.80
2018-08-11T01:06:38.327Z,0.77
2018-08-11T01:09:07.578Z,0.90
2018-08-11T01:11:35.698Z,0.97
2018-08-11T01:14:03.722Z,0.83
2018-08-11T01:16:31.762Z,1.00
2018-08-11T01:18:59.796Z,0.93
2018-08-11T01:21:27.823Z,0.87
2018-08-11T01:23:55.873Z,0.90
2018-08-11T01:26:24.026Z,0.90
2018-08-11T01:28:52.076Z,1.00
2018-08-11T01:31:20.128Z,0.90
2018-08-11T01:33:48.158Z,0.87
2018-08-11T01:36:16.181Z,1.13
2018-08-11T01:38:44.217Z,0.77
2018-08-11T01:41:12.243Z,1.20
2018-08-11T01:43:40.286Z,0.90
2018-08-11T01:46:08.335Z,1.00
2018-08-11T01:48:36.420Z,1.00
2018-08-11T01:51:04.457Z,0.90
2018-08-11T01:53:32.554Z,1.00
2018-08-11T01:56:00.674Z,0.90
2018-08-11T01:58:28.739Z,1.10
2018-08-11T02:00:56.790Z,0.83
2018-08-11T02:03:24.880Z,1.27
2018-08-11T02:05:52.937Z,0.80
2018-08-11T02:08:20.998Z,0.90
2018-08-11T02:10:49.071Z,1.37
2018-08-11T02:13:17.094Z,1.00
2018-08-11T02:15:45.219Z,0.93
2018-08-11T02:18:13.255Z,0.90
2018-08-11T02:20:41.354Z,0.93
2018-08-11T02:23:09.434Z,1.12
2018-08-11T02:25:37.458Z,1.27
2018-08-11T02:28:05.550Z,0.90
2018-08-11T02:30:33.573Z,1.10
2018-08-11T02:33:01.726Z,1.10
2018-08-11T02:35:29.805Z,1.00
2018-08-11T02:37:57.867Z,1.10
2018-08-11T02:40:25.894Z,1.33
2018-08-11T02:42:53.924Z,1.23
2018-08-11T02:45:22.007Z,1.10
2018-08-11T02:47:50.080Z,1.30
2018-08-11T02:50:18.142Z,1.37
2018-08-11T02:52:46.216Z,1.70
2018-08-11T02:55:15.262Z,1.00
2018-08-11T02:57:43.307Z,1.40
2018-08-11T03:00:12.013Z,1.27
2018-08-11T03:02:40.068Z,1.50
2018-08-11T03:05:08.095Z,1.60
2018-08-11T03:07:36.478Z,1.10
2018-08-11T03:10:04.891Z,1.73
2018-08-11T03:12:33.015Z,1.50
2018-08-11T03:15:01.058Z,1.27
2018-08-11T03:17:29.112Z,1.30
2018-08-11T03:19:57.156Z,1.40
2018-08-11T03:22:25.191Z,1.37
2018-08-11T03:24:53.277Z,1.20
2018-08-11T03:27:21.321Z,1.40
2018-08-11T03:29:49.352Z,1.20
2018-08-11T03:32:17.486Z,0.90
2018-08-11T03:34:45.578Z,1.40
2018-08-11T03:37:13.654Z,1.17
2018-08-11T03:39:41.831Z,1.30
2018-08-11T03:42:09.903Z,1.30
2018-08-11T03:44:37.964Z,1.37
2018-08-11T03:47:06.046Z,1.40
2018-08-11T03:49:34.099Z,1.17
2018-08-11T03:52:02.131Z,1.03
2018-08-11T03:54:30.221Z,1.10
2018-08-11T03:56:58.342Z,1.00
2018-08-11T03:59:26.379Z,1.00
2018-08-11T04:01:54.467Z,1.10
2018-08-11T04:04:22.604Z,0.90
2018-08-11T04:06:50.635Z,1.30
2018-08-11T04:09:18.765Z,0.97
2018-08-11T04:11:46.802Z,1.07
2018-08-11T04:14:14.921Z,1.00
2018-08-11T04:16:42.997Z,1.20
2018-08-11T04:19:11.044Z,1.40
2018-08-11T04:21:39.047Z,1.00
2018-08-11T04:24:07.626Z,1.00
2018-08-11T04:26:35.656Z,1.10
2018-08-11T04:29:03.746Z,1.20
2018-08-11T04:31:31.842Z,1.00
2018-08-11T04:33:59.896Z,0.90
2018-08-11T04:36:27.970Z,0.90
2018-08-11T04:38:56.158Z,1.27
2018-08-11T04:41:24.245Z,1.33
2018-08-11T04:43:52.285Z,1.07
2018-08-11T04:46:20.337Z,1.00
2018-08-11T04:48:48.442Z,1.20
2018-08-11T04:51:16.480Z,1.10
2018-08-11T04:53:44.520Z,0.90
2018-08-11T04:56:12.670Z,0.90
2018-08-11T04:58:40.726Z,0.97
2018-08-11T05:01:08.827Z,1.00
2018-08-11T05:03:36.890Z,0.97
2018-08-11T05:06:04.930Z,1.00
2018-08-11T05:08:33.008Z,1.20
2018-08-11T05:11:01.045Z,1.13
2018-08-11T05:13:29.146Z,1.00
2018-08-11T05:15:57.228Z,1.00
2018-08-11T05:18:25.310Z,0.80
2018-08-11T05:20:53.386Z,0.93
2018-08-11T05:23:21.434Z,0.70
2018-08-11T05:25:49.475Z,1.07
2018-08-11T05:28:17.749Z,1.00
2018-08-11T05:30:45.858Z,1.17
2018-08-11T05:33:13.946Z,1.00
2018-08-11T05:35:41.939Z,0.83
2018-08-11T05:38:10.026Z,1.00
2018-08-11T05:40:38.135Z,0.90
2018-08-11T05:43:06.177Z,0.90
2018-08-11T05:45:34.267Z,0.90
2018-08-11T05:48:02.330Z,0.70
2018-08-11T05:50:30.498Z,0.80
2018-08-11T05:52:58.538Z,1.00
2018-08-11T05:55:26.670Z,0.90
2018-08-11T05:57:54.702Z,0.90
2018-08-11T06:00:22.775Z,0.80
2018-08-11T06:02:50.815Z,0.83
2018-08-11T06:05:18.855Z,0.90
2018-08-11T06:07:46.906Z,0.90
2018-08-11T06:10:14.989Z,0.77
2018-08-11T06:12:43.035Z,0.90
2018-08-11T06:15:11.114Z,0.70
2018-08-11T06:17:39.160Z,0.70
2018-08-11T06:20:07.992Z,0.73
2018-08-11T06:22:36.062Z,0.80
2018-08-11T06:25:05.010Z,0.70
2018-08-11T06:27:33.066Z,0.87
2018-08-11T06:30:01.128Z,1.10
2018-08-11T06:32:29.163Z,0.80
2018-08-11T06:34:57.194Z,1.03
2018-08-11T06:37:25.287Z,0.93
2018-08-11T06:39:53.355Z,1.20
2018-08-11T06:42:21.390Z,1.00
2018-08-11T06:44:49.430Z,1.00
2018-08-11T06:47:17.479Z,1.03
2018-08-11T06:49:45.520Z,0.90
2018-08-11T06:52:13.688Z,1.30
2018-08-11T06:54:41.745Z,0.87
2018-08-11T06:57:09.823Z,0.70
2018-08-11T06:59:37.866Z,1.07
2018-08-11T07:02:05.915Z,0.70
2018-08-11T07:04:33.955Z,1.20
2018-08-11T07:07:02.047Z,1.00
2018-08-11T07:09:30.148Z,0.80
2018-08-11T07:11:58.195Z,0.90
2018-08-11T07:14:26.220Z,0.80
2018-08-11T07:16:54.265Z,0.80
2018-08-11T07:19:22.294Z,0.63
2018-08-11T07:21:50.326Z,0.70
2018-08-11T07:24:18.380Z,0.87
2018-08-11T07:26:46.423Z,0.73
2018-08-11T07:29:14.458Z,1.00
2018-08-11T07:31:42.506Z,0.80
2018-08-11T07:43:55.570Z,0.80
2018-08-11T07:46:23.636Z,0.93
2018-08-11T07:48:52.611Z,0.70
2018-08-11T07:51:20.642Z,0.73
2018-08-11T07:53:48.674Z,0.77
2018-08-11T07:56:16.727Z,1.00
2018-08-11T07:58:44.753Z,0.90
2018-08-11T08:01:12.939Z,1.00
2018-08-11T08:03:41.051Z,0.83
2018-08-11T08:06:09.111Z,0.73
2018-08-11T08:08:37.166Z,0.60
2018-08-11T08:11:05.426Z,0.77
2018-08-11T08:13:33.648Z,0.70
2018-08-11T08:16:03.617Z,0.77
2018-08-11T08:18:31.709Z,0.67
2018-08-11T08:20:59.742Z,0.70
2018-08-11T08:23:27.767Z,0.60
2018-08-11T08:25:55.802Z,0.80
2018-08-11T08:28:23.832Z,0.60
2018-08-11T08:30:51.887Z,0.70
2018-08-11T08:33:19.954Z,0.80
2018-08-11T08:35:48.042Z,0.80
2018-08-11T08:38:16.123Z,0.70
2018-08-11T08:40:44.799Z,0.83
2018-08-11T08:43:12.895Z,0.67
2018-08-11T08:45:41.201Z,0.70
2018-08-11T08:48:09.247Z,0.60
2018-08-11T08:50:37.347Z,0.90
2018-08-11T08:53:05.439Z,0.80
2018-08-11T08:55:33.498Z,0.80
2018-08-11T08:58:01.550Z,0.80
2018-08-11T09:00:29.663Z,0.60
2018-08-11T09:02:57.755Z,0.60
2018-08-11T09:05:25.827Z,0.63
2018-08-11T09:07:53.867Z,0.70
2018-08-11T09:10:21.929Z,0.57
2018-08-11T09:12:50.043Z,0.90
2018-08-11T09:15:18.144Z,0.67
2018-08-11T09:17:46.174Z,0.60
2018-08-11T09:20:14.630Z,0.70
2018-08-11T09:22:42.725Z,0.93
2018-08-11T09:25:10.775Z,0.60
2018-08-11T09:27:38.879Z,0.50
2018-08-11T09:30:07.047Z,0.70
2018-08-11T09:32:35.121Z,0.70
2018-08-11T09:35:03.176Z,0.50
2018-08-11T09:37:31.216Z,0.67
2018-08-11T09:39:59.246Z,0.60
2018-08-11T09:42:27.315Z,0.70
2018-08-11T09:44:55.394Z,0.70
2018-08-11T09:47:23.430Z,0.77
2018-08-11T09:49:51.543Z,0.50
2018-08-11T09:52:19.683Z,0.80
2018-08-11T09:54:47.635Z,0.80
2018-08-11T09:57:15.682Z,0.60
2018-08-11T09:59:43.742Z,0.50
2018-08-11T10:02:18.774Z,0.53
2018-08-11T10:04:46.838Z,0.47
2018-08-11T10:07:14.958Z,0.73
2018-08-11T10:09:43.020Z,0.70
2018-08-11T10:12:11.055Z,0.73
2018-08-11T10:14:39.221Z,0.50
2018-08-11T10:17:07.503Z,0.73
2018-08-11T10:19:35.559Z,0.47
2018-08-11T10:22:03.636Z,0.60
2018-08-11T10:24:31.711Z,0.50
2018-08-11T10:26:59.760Z,0.67
2018-08-11T10:29:27.819Z,0.40
2018-08-11T10:31:55.919Z,0.90
2018-08-11T10:34:24.070Z,0.60
2018-08-11T10:36:52.162Z,0.60
2018-08-11T10:39:20.190Z,0.70
2018-08-11T10:41:49.103Z,0.97
2018-08-11T10:44:17.150Z,0.60
2018-08-11T10:46:45.188Z,0.80
2018-08-11T10:49:13.292Z,0.50
2018-08-11T10:51:41.342Z,0.90
2018-08-11T10:54:09.391Z,0.50
2018-08-11T10:56:37.474Z,0.60
2018-08-11T10:59:05.539Z,0.70
2018-08-11T11:01:33.595Z,0.40
2018-08-11T11:04:01.783Z,0.50
2018-08-11T11:06:29.854Z,0.60
2018-08-11T11:08:57.879Z,0.40
2018-08-11T11:11:25.918Z,0.60
2018-08-11T11:13:53.964Z,1.03
2018-08-11T11:16:22.013Z,0.67
2018-08-11T11:18:50.065Z,0.70
2018-08-11T11:21:18.165Z,0.50
2018-08-11T11:23:46.199Z,0.80
2018-08-11T11:26:14.237Z,0.70
2018-08-11T11:28:43.010Z,0.60
2018-08-11T11:31:11.091Z,0.60
2018-08-11T11:33:39.123Z,0.40
2018-08-11T11:36:07.162Z,0.60
2018-08-11T11:38:35.202Z,0.60
2018-08-11T11:41:03.263Z,0.50
2018-08-11T11:43:31.321Z,0.60
2018-08-11T11:45:59.511Z,0.50
2018-08-11T11:48:27.590Z,0.70
2018-08-11T11:50:55.716Z,0.40
2018-08-11T11:53:23.891Z,0.67
2018-08-11T11:55:51.921Z,0.60
2018-08-11T11:58:20.003Z,0.70
2018-08-11T12:00:48.142Z,0.50
2018-08-11T12:03:16.215Z,0.73
2018-08-11T12:05:44.358Z,0.70
2018-08-11T12:08:12.361Z,0.50
2018-08-11T12:10:40.640Z,0.40
2018-08-11T12:13:08.706Z,0.70
2018-08-11T12:15:36.894Z,0.40
2018-08-11T12:18:05.198Z,0.50
2018-08-11T12:20:33.324Z,0.60
2018-08-11T12:23:01.416Z,0.60
2018-08-11T12:25:29.475Z,0.50
2018-08-11T12:27:57.566Z,0.80
2018-08-11T12:30:25.603Z,0.50
2018-08-11T12:32:53.683Z,0.57
2018-08-11T12:35:21.783Z,0.43
2018-08-11T12:37:49.849Z,0.60
2018-08-11T12:40:17.871Z,0.60
2018-08-11T12:42:45.909Z,0.60
2018-08-11T12:45:13.947Z,0.67
2018-08-11T12:47:41.983Z,0.40
2018-08-11T12:50:10.046Z,0.80
2018-08-11T12:52:38.162Z,0.67
2018-08-11T12:55:06.198Z,0.67
2018-08-11T12:57:34.297Z,0.47
2018-08-11T13:00:02.340Z,0.50
2018-08-11T13:02:30.391Z,0.50
2018-08-11T13:04:58.563Z,0.60
2018-08-11T13:07:26.606Z,0.40
2018-08-11T13:09:54.754Z,0.60
2018-08-11T13:12:22.959Z,0.40
2018-08-11T13:14:51.016Z,0.60
2018-08-11T13:17:19.195Z,0.60
2018-08-11T13:19:47.328Z,0.40
2018-08-11T13:22:15.367Z,0.53
2018-08-11T13:24:43.432Z,0.57
2018-08-11T13:27:11.492Z,0.50
2018-08-11T13:29:39.604Z,0.60
2018-08-11T13:32:07.682Z,0.67
2018-08-11T13:34:35.763Z,0.50
2018-08-11T13:37:03.830Z,1.00
2018-08-11T13:39:31.878Z,0.60
2018-08-11T13:41:59.962Z,0.50
2018-08-11T13:44:27.997Z,0.40
2018-08-11T13:46:56.126Z,0.40
2018-08-11T13:49:24.278Z,0.40
2018-08-11T13:51:52.371Z,0.50
2018-08-11T13:54:20.517Z,0.45
2018-08-11T13:56:48.630Z,0.40
2018-08-11T13:59:16.672Z,0.70
2018-08-11T14:01:44.762Z,0.60
2018-08-11T14:04:12.816Z,0.60
2018-08-11T14:06:40.866Z,0.60
2018-08-11T14:09:09.197Z,0.53
2018-08-11T14:11:37.467Z,0.63
2018-08-11T14:14:05.659Z,0.60
2018-08-11T14:16:33.706Z,0.50
2018-08-11T14:19:01.886Z,0.60
2018-08-11T14:21:31.178Z,0.57
2018-08-11T14:23:59.346Z,0.63
2018-08-11T14:26:27.615Z,0.40
2018-08-11T14:28:55.658Z,0.70
2018-08-11T14:31:23.790Z,0.60
2018-08-11T14:33:52.059Z,0.40
2018-08-11T14:36:20.108Z,0.77
2018-08-11T14:38:48.269Z,0.50
2018-08-11T14:41:16.594Z,0.67
2018-08-11T14:43:44.710Z,0.50
2018-08-11T14:46:12.831Z,0.60
2018-08-11T14:48:41.087Z,0.50
2018-08-11T14:51:09.201Z,0.70
2018-08-11T14:53:37.250Z,0.50
2018-08-11T14:56:05.304Z,0.60
2018-08-11T14:58:33.597Z,0.63
2018-08-11T15:01:01.727Z,0.60
2018-08-11T15:03:30.602Z,0.60
2018-08-11T15:05:58.639Z,0.50
2018-08-11T15:08:27.010Z,0.63
2018-08-11T15:10:55.391Z,0.70
2018-08-11T15:13:23.683Z,0.50
2018-08-11T15:15:52.126Z,0.60
2018-08-11T15:18:20.962Z,0.77
2018-08-11T15:20:48.998Z,0.50
2018-08-11T15:23:17.202Z,0.60
2018-08-11T15:25:45.319Z,0.70
2018-08-11T15:28:13.418Z,0.93
2018-08-11T15:30:42.152Z,0.60
2018-08-11T15:33:10.316Z,0.80
2018-08-11T15:35:38.409Z,0.60
2018-08-11T15:38:06.846Z,0.50
2018-08-11T15:40:35.125Z,0.80
2018-08-11T15:43:03.631Z,0.60
2018-08-11T15:45:31.870Z,0.60
2018-08-11T15:48:00.195Z,0.73
2018-08-11T15:50:28.536Z,0.67
2018-08-11T15:52:56.582Z,0.73
2018-08-11T15:55:24.655Z,0.63
2018-08-11T15:57:53.071Z,0.80
2018-08-11T16:00:21.381Z,0.60
2018-08-11T16:02:49.478Z,0.90
2018-08-11T16:05:17.670Z,0.60
2018-08-11T16:07:45.842Z,0.70
2018-08-11T16:10:14.406Z,0.80
2018-08-11T16:12:42.488Z,0.60
2018-08-11T16:15:10.562Z,0.87
2018-08-11T16:17:38.639Z,1.00
2018-08-11T16:20:07.038Z,0.70
2018-08-11T16:22:35.083Z,0.60
2018-08-11T16:25:03.217Z,0.80
2018-08-11T16:27:32.175Z,0.90
2018-08-11T16:30:00.351Z,0.73
2018-08-11T16:32:29.246Z,0.70
2018-08-11T16:34:57.278Z,0.90
2018-08-11T16:37:25.583Z,1.10
2018-08-11T16:39:53.611Z,0.60
2018-08-11T16:42:21.843Z,0.70
2018-08-11T16:44:51.247Z,0.50
2018-08-11T16:47:19.316Z,0.90
2018-08-11T16:49:47.431Z,0.90
2018-08-11T16:52:16.395Z,0.70
2018-08-11T16:54:44.706Z,0.83
2018-08-11T16:57:12.738Z,0.80
2018-08-11T16:59:41.747Z,0.90
2018-08-11T17:02:10.310Z,0.60
2018-08-11T17:04:38.338Z,0.60
2018-08-11T17:07:06.455Z,0.90
2018-08-11T17:09:35.358Z,0.90
2018-08-11T17:12:03.392Z,0.70
2018-08-11T17:14:31.707Z,0.80
2018-08-11T17:16:59.735Z,0.80
2018-08-11T17:19:27.927Z,0.70
2018-08-11T17:21:56.197Z,0.70
2018-08-11T17:24:24.454Z,0.80
2018-08-11T17:26:53.103Z,0.80
2018-08-11T17:29:21.160Z,0.80
2018-08-11T17:31:49.299Z,0.70
2018-08-11T17:34:17.686Z,0.93
2018-08-11T17:36:45.731Z,0.73
2018-08-11T17:39:13.796Z,0.60
2018-08-11T17:41:41.842Z,0.90
2018-08-11T17:44:11.238Z,0.87
2018-08-11T17:46:39.303Z,0.67
2018-08-11T17:49:07.352Z,0.50
2018-08-11T17:51:35.426Z,0.70
2018-08-11T17:54:03.494Z,0.70
2018-08-11T17:56:34.679Z,1.00
2018-08-11T17:59:02.938Z,0.77
2018-08-11T18:01:31.880Z,0.63
2018-08-11T18:03:59.946Z,0.80
2018-08-11T18:06:28.407Z,0.80
2018-08-11T18:08:56.886Z,0.90
2018-08-11T18:11:24.926Z,0.70
2018-08-11T18:13:53.055Z,0.70
2018-08-11T18:16:21.074Z,0.80
2018-08-11T18:18:49.472Z,0.70
2018-08-11T18:21:17.522Z,0.80
2018-08-11T18:23:45.675Z,0.57
2018-08-11T18:26:13.767Z,0.80
2018-08-11T18:28:42.342Z,0.60
2018-08-11T18:31:12.505Z,0.70
2018-08-11T18:33:40.877Z,0.80
2018-08-11T18:36:09.000Z,0.67
2018-08-11T18:38:37.035Z,0.73
2018-08-11T18:41:05.203Z,0.80
2018-08-11T18:43:33.574Z,0.80
2018-08-11T18:46:02.294Z,0.80
2018-08-11T18:48:30.369Z,0.90
2018-08-11T18:50:58.806Z,0.60
2018-08-11T18:53:26.867Z,0.70
2018-08-11T18:55:54.910Z,0.73
2018-08-11T18:58:22.944Z,0.83
2018-08-11T19:00:51.307Z,0.80
2018-08-11T19:03:19.731Z,0.90
2018-08-11T19:05:47.770Z,0.90
2018-08-11T19:08:15.882Z,0.90
2018-08-11T19:10:43.964Z,0.67
2018-08-11T19:13:12.068Z,0.67
2018-08-11T19:15:40.584Z,0.80
2018-08-11T19:18:09.338Z,0.90
2018-08-11T19:20:38.143Z,0.90
2018-08-11T19:23:06.621Z,0.90
2018-08-11T19:25:34.818Z,1.13
2018-08-11T19:28:02.830Z,0.87
2018-08-11T19:30:30.910Z,1.10
2018-08-11T19:33:00.157Z,1.00
2018-08-11T19:35:28.638Z,0.63
2018-08-11T19:37:56.731Z,0.97
2018-08-11T19:40:24.763Z,1.07
2018-08-11T19:42:52.815Z,1.43
2018-08-11T19:45:21.306Z,1.67
2018-08-11T19:47:49.350Z,2.10
2018-08-11T19:50:17.742Z,2.17
2018-08-11T19:52:45.802Z,2.97
2018-08-11T19:55:13.870Z,3.70
2018-08-11T19:57:42.397Z,3.20
2018-08-11T20:00:12.370Z,3.27
2018-08-11T20:02:42.627Z,4.17
2018-08-11T20:05:11.380Z,3.57
2018-08-11T20:07:40.157Z,3.63
2018-08-11T20:10:09.466Z,4.10
2018-08-11T20:12:38.457Z,3.50
2018-08-11T20:15:07.285Z,3.67
2018-08-11T20:17:35.342Z,4.13
2018-08-11T20:20:05.203Z,4.20
2018-08-11T20:22:34.683Z,3.80
2018-08-11T20:25:02.971Z,3.63
2018-08-11T20:27:31.095Z,3.90
2018-08-11T20:29:59.402Z,3.70
2018-08-11T20:32:27.446Z,3.47
2018-08-11T20:34:55.530Z,3.70
2018-08-11T20:37:23.677Z,3.27
2018-08-11T20:39:51.831Z,3.40
2018-08-11T20:42:19.870Z,3.00
2018-08-11T20:44:47.914Z,2.83
2018-08-11T20:47:16.234Z,3.00
2018-08-11T20:49:44.338Z,3.20
2018-08-11T20:52:12.424Z,3.13
2018-08-11T20:54:40.457Z,3.10
2018-08-11T20:57:08.503Z,2.70
2018-08-11T20:59:36.635Z,2.67
2018-08-11T21:02:04.672Z,2.70
2018-08-11T21:04:32.710Z,2.37
2018-08-11T21:07:00.766Z,2.60
2018-08-11T21:09:28.831Z,2.40
2018-08-11T21:11:56.995Z,2.83
2018-08-11T21:14:25.078Z,2.37
2018-08-11T21:16:53.322Z,2.83
2018-08-11T21:19:21.355Z,2.50
2018-08-11T21:21:50.006Z,2.73
2018-08-11T21:24:18.074Z,2.40
2018-08-11T21:26:46.166Z,2.33
2018-08-11T21:29:14.223Z,2.90
2018-08-11T21:31:44.046Z,2.37
2018-08-11T21:34:13.067Z,2.37
2018-08-11T21:36:41.200Z,2.60
2018-08-11T21:39:10.206Z,2.10
2018-08-11T21:41:38.254Z,2.50
2018-08-11T21:44:06.510Z,2.47
2018-08-11T21:46:34.618Z,2.63
2018-08-11T21:49:02.682Z,2.30
2018-08-11T21:51:30.774Z,2.40
2018-08-11T21:53:59.556Z,2.43
2018-08-11T21:56:27.663Z,2.30
2018-08-11T21:58:55.698Z,2.77
2018-08-11T22:01:23.754Z,2.50
2018-08-11T22:03:52.040Z,2.70
2018-08-11T22:06:20.117Z,2.60
2018-08-11T22:08:48.175Z,2.37
2018-08-11T22:11:16.207Z,2.33
2018-08-11T22:13:44.312Z,2.17
2018-08-11T22:16:12.334Z,2.37
2018-08-11T22:18:40.372Z,2.60
2018-08-11T22:21:08.483Z,2.30
2018-08-11T22:23:36.522Z,2.50
2018-08-11T22:26:04.548Z,2.33
2018-08-11T22:28:32.645Z,2.37
2018-08-11T22:31:00.681Z,2.27
2018-08-11T22:33:28.725Z,2.33
2018-08-11T22:35:56.767Z,2.20
2018-08-11T22:38:24.795Z,2.30
2018-08-11T22:40:52.858Z,2.53
2018-08-11T22:43:20.915Z,2.07
2018-08-11T22:45:48.963Z,2.10
2018-08-11T22:48:17.179Z,2.40
2018-08-11T22:50:45.215Z,2.47
2018-08-11T22:53:13.265Z,2.47
2018-08-11T22:55:41.299Z,2.27
2018-08-11T22:58:09.333Z,2.60
2018-08-11T23:00:37.366Z,2.63
2018-08-11T23:03:05.475Z,2.77
2018-08-11T23:05:33.530Z,2.57
2018-08-11T23:08:01.602Z,2.30
2018-08-11T23:10:29.689Z,2.23
2018-08-11T23:12:57.763Z,2.33
2018-08-11T23:15:25.809Z,2.40
2018-08-11T23:17:53.831Z,2.50
2018-08-11T23:20:21.861Z,2.70
2018-08-11T23:22:49.887Z,2.30
2018-08-11T23:25:17.994Z,2.13
2018-08-11T23:27:46.094Z,2.20
2018-08-11T23:30:15.475Z,2.00
2018-08-11T23:32:43.874Z,1.93
2018-08-11T23:35:12.451Z,2.13
2018-08-11T23:37:41.229Z,1.90
2018-08-11T23:40:09.959Z,2.07
2018-08-11T23:42:38.512Z,1.80
2018-08-11T23:45:11.490Z,1.83
2018-08-11T23:47:40.063Z,1.80
2018-08-11T23:50:08.749Z,2.07
2018-08-11T23:52:36.825Z,1.63
2018-08-11T23:55:05.247Z,2.00
2018-08-11T23:57:33.350Z,1.83
